Mansfield Hollow, Connecticut
Current Conditions -  °F | °C
As of 1:52 PM on Wednesday 26 Nov 2014 (Local Time) from KIJD Reporting Station
Light Snow Light Snow  
Wind Chill: -2°   Ceiling: 800
Heat Index:   Visibility: 1.5mi
Dew Point:   Wind: 7mph
Humidity: 92%   Direction: 360°N
Pressure: 30.04"   Gusts: NA
Location:  41.7742°N, 72.196°W
Report Text: KIJD 261852Z AUTO 36006KT 1 1/2SM -SN BR BKN008 BKN015 OVC022 01/00 A3004 RMK AO2 RAE01B16E45SNB01E16B45 SLP175 P0012 T00110000
Loading
Personal Weather Stations






























Interactive Weather Map New forecast layout! Learn more

10-Day Weather Forecast

Advertisements
Track Severe Weather on mobile